createdAt,value
2017-12-16T00:01:36.009Z,56.53
2017-12-16T00:04:02.949Z,49.22
2017-12-16T00:06:29.897Z,63.70
2017-12-16T00:08:56.843Z,49.80
2017-12-16T00:11:23.802Z,60.10
2017-12-16T00:13:50.753Z,56.20
2017-12-16T00:16:17.666Z,51.33
2017-12-16T00:18:45.380Z,46.35
2017-12-16T00:21:12.323Z,55.35
2017-12-16T00:23:39.244Z,45.63
2017-12-16T00:26:06.196Z,55.53
2017-12-16T00:28:34.055Z,60.55
2017-12-16T00:31:00.985Z,53.30
2017-12-16T00:33:27.901Z,53.33
2017-12-16T00:35:55.612Z,49.22
2017-12-16T00:38:23.783Z,49.35
2017-12-16T00:40:50.721Z,43.50
2017-12-16T00:43:17.633Z,43.92
2017-12-16T00:45:45.353Z,44.78
2017-12-16T00:48:12.262Z,43.72
2017-12-16T00:50:39.185Z,44.28
2017-12-16T00:53:06.969Z,47.42
2017-12-16T00:55:33.959Z,40.10
2017-12-16T00:58:00.862Z,46.67
2017-12-16T01:00:27.791Z,55.72
2017-12-16T01:02:54.741Z,58.78
2017-12-16T01:05:21.664Z,50.47
2017-12-16T01:07:49.365Z,53.60
2017-12-16T01:10:16.321Z,48.00
2017-12-16T01:12:43.230Z,51.13
2017-12-16T01:15:10.964Z,56.37
2017-12-16T01:17:37.910Z,57.25
2017-12-16T01:20:06.667Z,49.50
2017-12-16T01:22:33.593Z,52.75
2017-12-16T01:25:00.548Z,64.25
2017-12-16T01:27:27.573Z,64.85
2017-12-16T01:29:54.503Z,49.47
2017-12-16T01:32:21.443Z,50.55
2017-12-16T01:35:00.913Z,51.85
2017-12-16T01:37:39.632Z,44.85
2017-12-16T01:40:06.592Z,49.65
2017-12-16T01:42:33.539Z,48.97
2017-12-16T01:45:00.487Z,48.05
2017-12-16T01:47:28.240Z,59.95
2017-12-16T01:49:55.174Z,50.25
2017-12-16T01:52:22.089Z,47.53
2017-12-16T01:54:49.016Z,50.10
2017-12-16T01:57:16.720Z,55.80
2017-12-16T01:59:43.642Z,46.78
2017-12-16T02:02:10.550Z,54.85
2017-12-16T02:04:37.511Z,43.28
2017-12-16T02:07:04.426Z,49.50
2017-12-16T02:09:32.114Z,53.65
2017-12-16T02:11:59.049Z,57.62
2017-12-16T02:14:25.978Z,54.90
2017-12-16T02:16:52.900Z,54.55
2017-12-16T02:19:19.836Z,50.50
2017-12-16T02:21:46.740Z,54.38
2017-12-16T02:24:13.673Z,52.88
2017-12-16T02:26:41.390Z,56.25
2017-12-16T02:29:08.298Z,54.60
2017-12-16T02:31:35.220Z,49.15
2017-12-16T02:34:02.141Z,49.85
2017-12-16T02:36:29.050Z,53.70
2017-12-16T02:38:55.984Z,45.83
2017-12-16T02:41:22.918Z,46.20
2017-12-16T02:43:49.842Z,47.53
2017-12-16T02:46:17.532Z,46.03
2017-12-16T02:48:44.447Z,52.83
2017-12-16T02:51:12.140Z,49.35
2017-12-16T02:53:39.062Z,43.85
2017-12-16T02:56:06.027Z,43.30
2017-12-16T02:58:32.937Z,42.28
2017-12-16T03:01:00.640Z,45.38
2017-12-16T03:03:27.556Z,39.30
2017-12-16T03:05:55.244Z,43.72
2017-12-16T03:08:22.150Z,38.50
2017-12-16T03:10:49.848Z,43.25
2017-12-16T03:13:16.768Z,45.38
2017-12-16T03:15:44.520Z,39.67
2017-12-16T03:18:11.430Z,39.22
2017-12-16T03:20:38.355Z,43.55
2017-12-16T03:23:05.293Z,44.25
2017-12-16T03:25:32.230Z,35.88
2017-12-16T03:27:59.145Z,37.40
2017-12-16T03:30:26.842Z,30.30
2017-12-16T03:32:53.758Z,40.40
2017-12-16T03:35:21.462Z,32.72
2017-12-16T03:37:48.381Z,42.08
2017-12-16T03:40:15.303Z,33.67
2017-12-16T03:42:43.765Z,43.05
2017-12-16T03:45:10.692Z,35.40
2017-12-16T03:47:37.615Z,26.62
2017-12-16T03:50:04.563Z,28.75
2017-12-16T03:52:31.477Z,36.67
2017-12-16T03:54:58.397Z,40.45
2017-12-16T03:57:26.081Z,30.25
2017-12-16T03:59:53.004Z,35.00
2017-12-16T04:02:20.734Z,40.40
2017-12-16T04:04:47.660Z,46.47
2017-12-16T04:07:14.578Z,41.03
2017-12-16T04:09:41.559Z,27.87
2017-12-16T04:12:08.482Z,37.53
2017-12-16T04:14:35.407Z,32.38
2017-12-16T04:17:02.312Z,34.10
2017-12-16T04:19:29.232Z,43.05
2017-12-16T04:21:56.144Z,37.03
2017-12-16T04:24:23.063Z,39.72
2017-12-16T04:26:50.746Z,38.65
2017-12-16T04:29:17.668Z,39.90
2017-12-16T04:31:44.576Z,31.37
2017-12-16T04:34:12.260Z,43.80
2017-12-16T04:36:39.174Z,32.78
2017-12-16T04:39:06.101Z,39.58
2017-12-16T04:41:33.007Z,33.42
2017-12-16T04:43:59.928Z,39.85
2017-12-16T04:46:26.832Z,40.03
2017-12-16T04:48:54.517Z,37.88
2017-12-16T04:51:21.420Z,37.78
2017-12-16T04:53:48.335Z,41.78
2017-12-16T04:56:15.242Z,44.75
2017-12-16T04:58:42.165Z,39.20
2017-12-16T05:01:09.068Z,35.75
2017-12-16T05:03:35.992Z,48.00
2017-12-16T05:06:03.676Z,36.97
2017-12-16T05:08:30.584Z,29.42
2017-12-16T05:10:57.502Z,46.53
2017-12-16T05:13:25.179Z,39.83
2017-12-16T05:15:52.105Z,41.72
2017-12-16T05:18:19.794Z,39.85
2017-12-16T05:20:46.712Z,31.33
2017-12-16T05:23:13.632Z,36.65
2017-12-16T05:25:41.324Z,31.75
2017-12-16T05:28:08.232Z,29.40
2017-12-16T05:30:35.148Z,17.15
2017-12-16T05:33:02.088Z,28.12
2017-12-16T05:35:29.004Z,23.12
2017-12-16T05:37:55.913Z,26.40
2017-12-16T05:40:22.856Z,22.25
2017-12-16T05:42:49.798Z,20.35
2017-12-16T05:45:16.722Z,22.90
2017-12-16T05:47:43.645Z,21.65
2017-12-16T05:50:10.565Z,21.62
2017-12-16T05:52:37.493Z,24.52
2017-12-16T05:55:04.403Z,15.85
2017-12-16T05:57:31.325Z,22.13
2017-12-16T05:59:58.228Z,16.67
2017-12-16T06:02:25.153Z,15.32
2017-12-16T06:04:52.057Z,14.70
2017-12-16T06:07:18.976Z,17.52
2017-12-16T06:09:45.876Z,17.40
2017-12-16T06:12:12.832Z,17.05
2017-12-16T06:14:39.750Z,14.38
2017-12-16T06:17:06.666Z,15.23
2017-12-16T06:19:33.589Z,23.83
2017-12-16T06:22:01.273Z,11.75
2017-12-16T06:24:28.185Z,10.65
2017-12-16T06:26:55.093Z,10.70
2017-12-16T06:29:22.041Z,13.23
2017-12-16T06:31:49.721Z,16.42
2017-12-16T06:34:16.646Z,15.07
2017-12-16T06:36:43.562Z,7.97
2017-12-16T06:39:10.500Z,11.73
2017-12-16T06:41:38.188Z,14.65
2017-12-16T06:44:05.100Z,14.38
2017-12-16T06:46:31.999Z,8.73
2017-12-16T06:48:59.689Z,10.80
2017-12-16T06:51:27.381Z,12.52
2017-12-16T06:53:54.288Z,10.13
2017-12-16T06:56:22.147Z,8.15
2017-12-16T06:58:49.052Z,6.50
2017-12-16T07:01:15.964Z,9.35
2017-12-16T07:03:42.880Z,9.38
2017-12-16T07:06:09.789Z,6.65
2017-12-16T07:08:36.716Z,10.98
2017-12-16T07:11:03.641Z,7.30
2017-12-16T07:13:30.535Z,5.47
2017-12-16T07:15:58.216Z,7.03
2017-12-16T07:18:27.084Z,5.65
2017-12-16T07:20:54.030Z,5.40
2017-12-16T07:23:20.928Z,6.65
2017-12-16T07:25:47.844Z,3.75
2017-12-16T07:28:14.765Z,8.68
2017-12-16T07:30:42.473Z,7.15
2017-12-16T07:33:09.394Z,8.25
2017-12-16T07:35:36.327Z,4.78
2017-12-16T07:38:03.300Z,3.85
2017-12-16T07:40:30.232Z,2.83
2017-12-16T07:42:57.156Z,5.32
2017-12-16T07:45:24.828Z,3.40
2017-12-16T07:47:51.751Z,3.33
2017-12-16T07:50:19.517Z,2.83
2017-12-16T07:52:47.244Z,2.62
2017-12-16T07:55:14.154Z,10.25
2017-12-16T07:57:41.082Z,2.10
2017-12-16T08:00:08.749Z,2.95
2017-12-16T08:02:35.665Z,7.22
2017-12-16T08:05:02.581Z,2.15
2017-12-16T08:07:29.508Z,4.57
2017-12-16T08:09:56.416Z,2.10
2017-12-16T08:12:23.352Z,8.05
2017-12-16T08:14:51.058Z,1.37
2017-12-16T08:17:17.965Z,2.37
2017-12-16T08:19:45.644Z,4.20
2017-12-16T08:22:12.569Z,2.37
2017-12-16T08:24:39.480Z,6.43
2017-12-16T08:27:06.419Z,8.05
2017-12-16T08:29:33.340Z,2.03
2017-12-16T08:32:00.273Z,3.12
2017-12-16T08:34:27.180Z,3.33
2017-12-16T08:36:54.096Z,4.50
2017-12-16T08:39:21.012Z,3.37
2017-12-16T08:41:47.956Z,2.95
2017-12-16T08:44:14.872Z,13.18
2017-12-16T08:46:42.560Z,5.65
2017-12-16T08:49:09.452Z,2.72
2017-12-16T08:51:36.369Z,6.75
2017-12-16T08:54:03.280Z,6.68
2017-12-16T08:56:30.209Z,4.75
2017-12-16T08:58:57.116Z,4.12
2017-12-16T09:01:24.045Z,3.42
2017-12-16T09:03:50.968Z,4.60
2017-12-16T09:06:17.907Z,3.40
2017-12-16T09:08:44.832Z,3.17
2017-12-16T09:11:11.770Z,5.03
2017-12-16T09:13:38.683Z,2.92
2017-12-16T09:16:06.360Z,6.28
2017-12-16T09:18:33.264Z,7.18
2017-12-16T09:21:00.217Z,4.47
2017-12-16T09:23:27.137Z,8.77
2017-12-16T09:25:54.052Z,5.12
2017-12-16T09:28:20.986Z,4.60
2017-12-16T09:30:47.910Z,6.78
2017-12-16T09:33:15.608Z,8.32
2017-12-16T09:35:42.512Z,3.97
2017-12-16T09:38:09.446Z,2.62
2017-12-16T09:40:36.339Z,3.08
2017-12-16T09:43:03.266Z,4.40
2017-12-16T09:45:30.169Z,4.00
2017-12-16T09:47:59.092Z,2.75
2017-12-16T09:50:26.774Z,2.85
2017-12-16T09:52:53.694Z,6.53
2017-12-16T09:55:21.365Z,3.70
2017-12-16T09:57:48.289Z,5.68
2017-12-16T10:00:16.394Z,4.30
2017-12-16T10:02:43.286Z,4.90
2017-12-16T10:05:10.200Z,2.55
2017-12-16T10:07:37.105Z,3.17
2017-12-16T10:10:04.789Z,2.47
2017-12-16T10:12:31.701Z,4.53
2017-12-16T10:14:59.386Z,3.85
2017-12-16T10:17:26.288Z,4.90
2017-12-16T10:19:53.209Z,2.53
2017-12-16T10:22:20.115Z,5.57
2017-12-16T10:24:47.038Z,3.55
2017-12-16T10:27:14.851Z,3.62
2017-12-16T10:29:41.774Z,4.70
2017-12-16T10:32:08.689Z,2.08
2017-12-16T10:34:36.414Z,2.67
2017-12-16T10:37:03.337Z,2.30
2017-12-16T10:39:30.261Z,3.80
2017-12-16T10:41:57.413Z,3.70
2017-12-16T10:44:24.373Z,10.02
2017-12-16T10:46:51.309Z,4.70
2017-12-16T10:49:19.049Z,3.25
2017-12-16T10:51:46.782Z,2.03
2017-12-16T10:54:13.837Z,4.12
2017-12-16T10:56:40.736Z,7.25
2017-12-16T10:59:07.656Z,4.82
2017-12-16T11:01:34.557Z,3.10
2017-12-16T11:04:03.485Z,5.82
2017-12-16T11:06:30.396Z,4.57
2017-12-16T11:08:57.332Z,6.93
2017-12-16T11:11:24.233Z,3.75
2017-12-16T11:13:51.169Z,6.07
2017-12-16T11:16:18.089Z,6.00
2017-12-16T11:18:45.042Z,3.15
2017-12-16T11:21:12.731Z,2.65
2017-12-16T11:23:41.640Z,2.92
2017-12-16T11:26:08.544Z,3.10
2017-12-16T11:28:35.465Z,5.43
2017-12-16T11:31:02.365Z,6.93
2017-12-16T11:33:30.055Z,4.87
2017-12-16T11:35:56.960Z,5.57
2017-12-16T11:38:24.645Z,2.47
2017-12-16T11:40:51.555Z,6.82
2017-12-16T11:43:18.477Z,5.80
2017-12-16T11:45:45.384Z,1.58
2017-12-16T11:48:12.335Z,1.65
2017-12-16T11:50:39.232Z,1.95
2017-12-16T11:53:06.134Z,0.82
2017-12-16T11:55:33.061Z,5.07
2017-12-16T11:58:00.011Z,3.72
2017-12-16T12:00:27.736Z,2.97
2017-12-16T12:02:54.635Z,4.00
2017-12-16T12:05:21.556Z,2.28
2017-12-16T12:07:48.456Z,6.20
2017-12-16T12:10:15.368Z,2.95
2017-12-16T12:12:42.266Z,4.32
2017-12-16T12:15:09.956Z,8.60
2017-12-16T12:17:36.900Z,2.37
2017-12-16T12:20:03.817Z,5.37
2017-12-16T12:22:31.488Z,3.45
2017-12-16T12:24:59.170Z,6.35
2017-12-16T12:27:26.834Z,3.25
2017-12-16T12:29:53.773Z,3.62
2017-12-16T12:32:21.440Z,2.67
2017-12-16T12:34:48.372Z,1.62
2017-12-16T12:37:16.045Z,1.50
2017-12-16T12:39:42.971Z,1.05
2017-12-16T12:42:10.654Z,6.75
2017-12-16T12:44:37.575Z,10.35
2017-12-16T12:47:04.477Z,1.40
2017-12-16T12:49:32.335Z,3.55
2017-12-16T12:51:59.238Z,3.00
2017-12-16T12:54:26.177Z,4.15
2017-12-16T12:56:53.086Z,4.97
2017-12-16T12:59:20.772Z,4.18
2017-12-16T13:01:48.553Z,5.32
2017-12-16T13:04:15.483Z,8.50
2017-12-16T13:06:42.400Z,6.78
2017-12-16T13:09:09.328Z,2.65
2017-12-16T13:11:36.994Z,4.00
2017-12-16T13:14:03.913Z,5.10
2017-12-16T13:16:30.812Z,9.15
2017-12-16T13:18:57.728Z,6.93
2017-12-16T13:21:24.632Z,4.62
2017-12-16T13:23:51.560Z,3.70
2017-12-16T13:26:18.480Z,3.40
2017-12-16T13:28:45.392Z,11.00
2017-12-16T13:31:13.077Z,12.90
2017-12-16T13:33:39.996Z,1.20
2017-12-16T13:36:07.672Z,7.15
2017-12-16T13:38:34.604Z,4.53
2017-12-16T13:41:03.304Z,7.97
2017-12-16T13:43:30.250Z,4.25
2017-12-16T13:45:57.169Z,3.17
2017-12-16T13:48:24.866Z,4.10
2017-12-16T13:50:51.777Z,7.22
2017-12-16T13:53:18.730Z,3.28
2017-12-16T13:55:46.589Z,1.37
2017-12-16T13:58:14.281Z,4.53
2017-12-16T14:00:41.237Z,6.40
2017-12-16T14:03:08.170Z,3.12
2017-12-16T14:05:35.101Z,1.85
2017-12-16T14:08:02.037Z,3.17
2017-12-16T14:10:29.789Z,13.55
2017-12-16T14:12:57.532Z,6.82
2017-12-16T14:15:24.443Z,2.65
2017-12-16T14:17:51.358Z,5.47
2017-12-16T14:20:18.263Z,6.57
2017-12-16T14:22:46.156Z,3.95
2017-12-16T14:25:13.835Z,5.25
2017-12-16T14:27:40.763Z,2.10
2017-12-16T14:30:08.444Z,1.85
2017-12-16T14:32:35.377Z,1.62
2017-12-16T14:35:03.044Z,2.58
2017-12-16T14:37:30.717Z,2.40
2017-12-16T14:39:57.641Z,3.62
2017-12-16T14:42:25.309Z,6.60
2017-12-16T14:44:53.003Z,3.33
2017-12-16T14:47:19.912Z,6.65
2017-12-16T14:49:46.845Z,3.55
2017-12-16T14:52:14.517Z,5.37
2017-12-16T14:54:42.200Z,4.60
2017-12-16T14:57:09.096Z,8.95
2017-12-16T14:59:36.038Z,3.75
2017-12-16T15:02:02.945Z,2.28
2017-12-16T15:04:29.864Z,5.00
2017-12-16T15:06:56.771Z,8.88
2017-12-16T15:09:23.693Z,6.45
2017-12-16T15:11:50.593Z,6.18
2017-12-16T15:14:17.508Z,4.00
2017-12-16T15:16:44.413Z,10.63
2017-12-16T15:19:11.337Z,3.25
2017-12-16T15:21:39.008Z,1.73
2017-12-16T15:24:05.929Z,8.77
2017-12-16T15:26:34.885Z,2.72
2017-12-16T15:29:01.833Z,1.98
2017-12-16T15:31:28.737Z,4.47
2017-12-16T15:33:57.624Z,3.45
2017-12-16T15:36:24.528Z,3.10
2017-12-16T15:38:51.441Z,4.25
2017-12-16T15:41:18.388Z,1.90
2017-12-16T15:43:45.300Z,3.70
2017-12-16T15:46:12.229Z,4.30
2017-12-16T15:48:39.152Z,2.80
2017-12-16T15:51:06.082Z,5.87
2017-12-16T15:53:33.025Z,6.43
2017-12-16T15:55:59.942Z,6.15
2017-12-16T15:58:28.817Z,15.70
2017-12-16T16:00:55.724Z,6.35
2017-12-16T16:03:22.669Z,4.87
2017-12-16T16:05:50.365Z,2.25
2017-12-16T16:08:21.235Z,5.95
2017-12-16T16:10:48.168Z,7.25
2017-12-16T16:13:15.102Z,3.72
2017-12-16T16:15:42.033Z,5.65
2017-12-16T16:18:09.721Z,4.32
2017-12-16T16:20:36.653Z,19.05
2017-12-16T16:23:03.554Z,4.10
2017-12-16T16:25:30.486Z,8.48
2017-12-16T16:27:57.393Z,4.35
2017-12-16T16:30:24.309Z,5.80
2017-12-16T16:32:52.000Z,3.75
2017-12-16T16:35:18.928Z,4.95
2017-12-16T16:37:45.829Z,4.12
2017-12-16T16:40:12.752Z,4.65
2017-12-16T16:42:39.689Z,5.55
2017-12-16T16:45:06.612Z,2.75
2017-12-16T16:47:33.527Z,8.00
2017-12-16T16:50:01.217Z,3.05
2017-12-16T16:52:28.120Z,2.70
2017-12-16T16:54:55.043Z,3.62
2017-12-16T16:57:21.949Z,2.97
2017-12-16T16:59:48.867Z,5.05
2017-12-16T17:02:20.404Z,3.58
2017-12-16T17:04:47.337Z,4.37
2017-12-16T17:07:14.340Z,7.60
2017-12-16T17:09:41.283Z,4.70
2017-12-16T17:12:09.149Z,2.97
2017-12-16T17:14:37.872Z,6.45
2017-12-16T17:17:05.652Z,4.03
2017-12-16T17:19:32.549Z,7.85
2017-12-16T17:21:59.450Z,10.30
2017-12-16T17:24:26.373Z,15.82
2017-12-16T17:26:53.304Z,7.50
2017-12-16T17:29:20.328Z,6.90
2017-12-16T17:31:47.299Z,6.40
2017-12-16T17:34:14.192Z,22.90
2017-12-16T17:36:41.137Z,11.80
2017-12-16T17:39:08.867Z,36.63
2017-12-16T17:41:35.813Z,7.05
2017-12-16T17:44:03.541Z,9.38
2017-12-16T17:46:31.389Z,6.47
2017-12-16T17:48:58.304Z,4.55
2017-12-16T17:51:25.230Z,4.93
2017-12-16T17:53:52.154Z,6.70
2017-12-16T17:56:19.859Z,12.05
2017-12-16T17:58:47.557Z,8.65
2017-12-16T18:01:14.505Z,8.23
2017-12-16T18:03:41.416Z,5.65
2017-12-16T18:06:08.357Z,22.10
2017-12-16T18:08:36.032Z,7.05
2017-12-16T18:11:03.722Z,6.55
2017-12-16T18:13:30.664Z,9.30
2017-12-16T18:15:57.585Z,6.97
2017-12-16T18:18:24.517Z,5.30
2017-12-16T18:20:52.201Z,3.47
2017-12-16T18:23:19.169Z,5.12
2017-12-16T18:25:46.077Z,4.82
2017-12-16T18:28:13.773Z,5.22
2017-12-16T18:30:41.694Z,7.45
2017-12-16T18:33:10.402Z,4.62
2017-12-16T18:35:37.323Z,4.37
2017-12-16T18:38:05.018Z,6.13
2017-12-16T18:40:31.949Z,7.93
2017-12-16T18:42:58.893Z,7.70
2017-12-16T18:45:25.808Z,4.90
2017-12-16T18:47:54.732Z,2.78
2017-12-16T18:50:21.638Z,5.95
2017-12-16T18:52:48.548Z,6.80
2017-12-16T18:55:15.453Z,5.28
2017-12-16T18:57:43.311Z,4.12
2017-12-16T19:00:12.277Z,7.95
2017-12-16T19:02:39.198Z,3.37
2017-12-16T19:05:06.646Z,8.48
2017-12-16T19:10:29.910Z,5.78
2017-12-16T19:12:57.064Z,5.93
2017-12-16T19:15:24.893Z,360.05
2017-12-16T19:17:52.593Z,207.90
2017-12-16T19:20:19.505Z,7.53
2017-12-16T19:22:47.245Z,9.00
2017-12-16T19:25:14.157Z,28.98
2017-12-16T19:27:41.077Z,9.63
2017-12-16T19:30:07.983Z,7.87
2017-12-16T19:32:34.905Z,9.68
2017-12-16T19:35:01.813Z,15.10
2017-12-16T19:37:29.056Z,5.28
2017-12-16T19:39:55.973Z,3.85
2017-12-16T19:42:22.931Z,6.03
2017-12-16T19:44:49.833Z,8.35
2017-12-16T19:47:19.305Z,5.82
2017-12-16T19:49:46.331Z,7.25
2017-12-16T19:52:14.176Z,5.05
2017-12-16T19:54:41.179Z,8.98
2017-12-16T19:57:08.117Z,12.80
2017-12-16T19:59:35.954Z,38.53
2017-12-16T20:02:02.923Z,2.87
2017-12-16T20:04:29.854Z,7.15
2017-12-16T20:06:56.758Z,21.00
2017-12-16T20:09:23.698Z,5.30
2017-12-16T20:11:51.592Z,4.37
2017-12-16T20:14:19.378Z,9.20
2017-12-16T20:16:47.345Z,18.23
2017-12-16T20:19:14.293Z,4.00
2017-12-16T20:21:41.249Z,6.70
2017-12-16T20:24:08.394Z,5.47
2017-12-16T20:26:35.332Z,8.02
2017-12-16T20:29:02.268Z,3.00
2017-12-16T20:31:29.185Z,7.78
2017-12-16T20:33:57.826Z,6.72
2017-12-16T20:36:24.744Z,11.12
2017-12-16T20:38:51.668Z,4.25
2017-12-16T20:41:18.604Z,12.65
2017-12-16T20:43:45.555Z,13.13
2017-12-16T20:46:13.236Z,4.45
2017-12-16T20:48:40.152Z,8.43
2017-12-16T20:51:07.077Z,3.42
2017-12-16T20:53:33.976Z,9.32
2017-12-16T20:56:00.896Z,7.57
2017-12-16T20:58:28.560Z,6.37
2017-12-16T21:00:56.364Z,15.18
2017-12-16T21:03:23.300Z,9.65
2017-12-16T21:05:50.237Z,7.00
2017-12-16T21:08:17.169Z,4.87
2017-12-16T21:10:44.347Z,11.68
2017-12-16T21:13:11.289Z,8.70
2017-12-16T21:15:38.190Z,9.27
2017-12-16T21:18:05.893Z,5.45
2017-12-16T21:20:32.890Z,15.20
2017-12-16T21:22:59.957Z,12.93
2017-12-16T21:25:26.885Z,6.85
2017-12-16T21:27:53.820Z,12.87
2017-12-16T21:30:20.728Z,10.18
2017-12-16T21:32:47.640Z,9.27
2017-12-16T21:35:15.309Z,8.40
2017-12-16T21:37:42.248Z,10.55
2017-12-16T21:40:10.167Z,2.87
2017-12-16T21:42:37.104Z,9.13
2017-12-16T21:45:04.029Z,14.10
2017-12-16T21:47:30.974Z,8.23
2017-12-16T21:49:57.881Z,8.02
2017-12-16T21:52:25.553Z,3.53
2017-12-16T21:54:52.485Z,5.80
2017-12-16T21:57:20.168Z,5.68
2017-12-16T21:59:47.084Z,7.97
2017-12-16T22:02:13.994Z,6.45
2017-12-16T22:04:41.946Z,4.85
2017-12-16T22:07:08.877Z,4.25
2017-12-16T22:09:35.812Z,10.15
2017-12-16T22:12:03.665Z,6.15
2017-12-16T22:14:31.368Z,6.25
2017-12-16T22:16:58.285Z,8.98
2017-12-16T22:19:25.206Z,7.85
2017-12-16T22:21:52.899Z,11.73
2017-12-16T22:24:19.828Z,8.98
2017-12-16T22:26:46.722Z,9.77
2017-12-16T22:29:13.718Z,11.48
2017-12-16T22:31:40.567Z,6.00
2017-12-16T22:34:08.415Z,9.15
2017-12-16T22:36:35.363Z,5.10
2017-12-16T22:39:04.040Z,16.98
2017-12-16T22:41:30.952Z,9.98
2017-12-16T22:43:58.867Z,7.05
2017-12-16T22:46:26.562Z,12.13
2017-12-16T22:48:53.486Z,11.73
2017-12-16T22:51:20.418Z,7.25
2017-12-16T22:53:53.617Z,2.45
2017-12-16T22:56:20.563Z,15.85
2017-12-16T22:58:47.490Z,6.28
2017-12-16T23:01:15.209Z,17.52
2017-12-16T23:03:42.139Z,11.45
2017-12-16T23:06:09.058Z,7.05
2017-12-16T23:08:35.980Z,11.23
2017-12-16T23:11:03.669Z,3.15
2017-12-16T23:13:30.577Z,13.85
2017-12-16T23:15:59.464Z,7.28
2017-12-16T23:18:27.142Z,7.32
2017-12-16T23:20:54.096Z,2.45
2017-12-16T23:23:21.781Z,5.12
2017-12-16T23:25:48.709Z,9.23
2017-12-16T23:28:15.659Z,11.45
2017-12-16T23:30:42.600Z,4.57
2017-12-16T23:33:09.515Z,12.82
2017-12-16T23:35:36.446Z,8.40
2017-12-16T23:38:03.364Z,10.00
2017-12-16T23:40:30.296Z,11.23
2017-12-16T23:42:57.209Z,8.60
2017-12-16T23:45:24.940Z,10.20
2017-12-16T23:47:51.843Z,3.70
2017-12-16T23:50:18.817Z,12.35
2017-12-16T23:52:45.726Z,5.10
2017-12-16T23:55:13.432Z,10.10
2017-12-16T23:57:40.354Z,7.65
